Tiszta, felhőtlen égbolt
Tiszta, felhőtlen égbolt
Tiszta, felhőtlen égbolt
Tiszta, felhőtlen égbolt
Tiszta, felhőtlen égbolt
Tiszta, felhőtlen égbolt
Tiszta, felhőtlen égbolt
Tiszta, felhőtlen égbolt
Tiszta, felhőtlen égbolt
(°C)
18°
18°
17°
17°
17°
17°
18°
18°
21°
21°
24°
24°
26°
26°
28°
28°
29°
29°
(°C)
13°
12°
12°
14°
17°
19°
22°
23°
24°
DDK
KDK
KDK
KDK
KDK
DK
DDK
DDN
DNy
(km/h)
8-16
9-17
10-16
9-15
9-15
10-17
13-26
17-31
20-33
(mm)
0
0
0
0
0
0
0
0
0
(%)
0
0
0
0
0
0
0
0
0

Napfelkelte

/ -10.2°
sun-icon
UV 12
05:52
20:35
Hold (növekvő félhold) (126°)
16:37
02:40

METAR Farmington (KFMN)-ért

Idő Feltételek Hőmérséklet/
Harmatpont
Szél Látási viszonyok Időjárás Felhők Légnyomás Módosítás Nyers
VFR 16.1°C / -7.8°C 80º 8kt >10km - Clear - KFMN 170953Z AUTO 08008KT 10SM CLR 16/M08 RMK AO2 SLPNO T01611078 $
VFR 20°C / -7.2°C 160º 6kt >10km - Clear - KFMN 170853Z AUTO 16006KT 10SM CLR 20/M07 RMK AO2 SLPNO T02001072 $
VFR 21.7°C / -9.4°C 190º 6kt >10km - Clear - KFMN 170753Z AUTO 19006KT 10SM CLR 22/M09 RMK AO2 SLPNO T02171094 $
VFR 20°C / °C 270º 3kt >10km - Clear - KFMN 170653Z AUTO 27003KT 10SM CLR 20/M11 RMK AO2 SLPNO T02001106 403610111 $
VFR 22.2°C / °C 250º 8kt >10km - Clear - KFMN 170553Z AUTO 25008KT 10SM CLR 22/M11 RMK AO2 SLPNO T02221106 10344 20222 $
VFR 24.4°C / °C 270º 8kt >10km - Clear - KFMN 170453Z AUTO 27008KT 10SM CLR 24/M11 RMK AO2 SLPNO T02441106 $
VFR 26.1°C / °C 250º 9kt >10km - Clear 1002 - KFMN 170353Z AUTO 25009KT 10SM CLR 26/M12 A2981 RMK AO2 SLP026 T02611117 $
VFR 27.8°C / °C 240º 7kt >10km - Clear 1002 - KFMN 170253Z 24007KT 10SM CLR 28/M13 A2980 RMK AO2 SLP025 T02781128 56008 $
VFR 32.2°C / °C 210º 7kt >10km - Clear 1002 - KFMN 170153Z 21007KT 10SM CLR 32/M10 A2980 RMK AO2 SLP022 T03221100 $
VFR 33.9°C / °C 210º 8kt >10km - Clear 1002 - KFMN 170053Z 21008KT 10SM CLR 34/M11 A2981 RMK AO2 SLP028 T03391111 $
VFR 35°C / °C 260º 12kt Gust 20kt >10km - Clear 1004 - KFMN 162353Z 26012G20KT 10SM CLR 35/M13 A2983 RMK AO2 SLP042 T03501133 10361 20306 57017 $
VFR 35°C / °C 250º 14kt Gust 21kt >10km - Clear 1004 - KFMN 162253Z 25014G21KT 10SM CLR 35/M11 A2985 RMK AO2 PK WND 27029/2212 SLP042 T03501106 $
VFR 35°C / °C 190º variable 170º to 240º 10kt Gust 25kt >10km - Clear 1004 - KFMN 162153Z 19010G25KT 170V240 10SM CLR 35/M11 A2987 RMK AO2 SLP047 T03501106 $
VFR 35.6°C / °C 230º 16kt Gust 25kt >10km - Clear 1005 - KFMN 162053Z 23016G25KT 10SM CLR 36/M11 A2989 RMK AO2 PK WND 26032/2032 SLP055 T03561111 $
VFR 34.4°C / °C 280º 15kt Gust 21kt >10km - Clear - KFMN 161953Z 28015G21KT 10SM CLR 34/M10 RMK AO2 SLPNO T03441100 $
VFR 32.2°C / -9.4°C 4kt >10km - Clear - KFMN 161853Z VRB04KT 10SM CLR 32/M09 RMK AO2 SLPNO T03221094 $
VFR 30.6°C / -7.8°C 6kt >10km - Clear - KFMN 161753Z VRB06KT 10SM CLR 31/M08 RMK AO2 SLPNO T03061078 10311 20111 $
VFR 28.3°C / -2.8°C variable 0kt >10km - Clear - KFMN 161653Z 00000KT 10SM CLR 28/M03 RMK AO2 SLPNO T02831028 $
VFR 25°C / 0.6°C 90º 6kt >10km - Clear - KFMN 161553Z 09006KT 10SM CLR 25/01 RMK AO2 SLPNO T02500006 $
VFR 21.1°C / 1.1°C 100º 6kt >10km - Clear - KFMN 161453Z 10006KT 10SM CLR 21/01 RMK AO2 SLPNO T02110011 $
VFR 18.3°C / -0.6°C 80º 5kt >10km - Clear - KFMN 161353Z 08005KT 10SM CLR 18/M01 RMK AO2 SLPNO T01831006 $
VFR 15.6°C / -1.7°C 80º 8kt >10km - Clear - KFMN 161253Z 08008KT 10SM CLR 16/M02 RMK AO2 SLPNO T01561017 $
VFR 11.7°C / -2.8°C 60º 7kt >10km - Clear - KFMN 161153Z 06007KT 10SM CLR 12/M03 RMK AO2 SLPNO T01171028 10222 20117 $
VFR 13.3°C / -2.8°C 50º 6kt >10km - Clear - KFMN 161053Z AUTO 05006KT 10SM CLR 13/M03 RMK AO2 SLPNO T01331028 $

VFR

16.1°C / -7.8°C

[Több]
Szél 80º 8kt
Látási viszonyok >10km
Időjárás -
Felhők Clear
Légnyomás
Módosítás -
Nyers KFMN 170953Z AUTO 08008KT 10SM CLR 16/M08 RMK AO2 SLPNO T01611078 $

VFR

20°C / -7.2°C

[Több]
Szél 160º 6kt
Látási viszonyok >10km
Időjárás -
Felhők Clear
Légnyomás
Módosítás -
Nyers KFMN 170853Z AUTO 16006KT 10SM CLR 20/M07 RMK AO2 SLPNO T02001072 $

VFR

21.7°C / -9.4°C

[Több]
Szél 190º 6kt
Látási viszonyok >10km
Időjárás -
Felhők Clear
Légnyomás
Módosítás -
Nyers KFMN 170753Z AUTO 19006KT 10SM CLR 22/M09 RMK AO2 SLPNO T02171094 $

VFR

20°C / °C

[Több]
Szél 270º 3kt
Látási viszonyok >10km
Időjárás -
Felhők Clear
Légnyomás
Módosítás -
Nyers KFMN 170653Z AUTO 27003KT 10SM CLR 20/M11 RMK AO2 SLPNO T02001106 403610111 $

VFR

22.2°C / °C

[Több]
Szél 250º 8kt
Látási viszonyok >10km
Időjárás -
Felhők Clear
Légnyomás
Módosítás -
Nyers KFMN 170553Z AUTO 25008KT 10SM CLR 22/M11 RMK AO2 SLPNO T02221106 10344 20222 $

VFR

24.4°C / °C

[Több]
Szél 270º 8kt
Látási viszonyok >10km
Időjárás -
Felhők Clear
Légnyomás
Módosítás -
Nyers KFMN 170453Z AUTO 27008KT 10SM CLR 24/M11 RMK AO2 SLPNO T02441106 $

VFR

26.1°C / °C

[Több]
Szél 250º 9kt
Látási viszonyok >10km
Időjárás -
Felhők Clear
Légnyomás 1002
Módosítás -
Nyers KFMN 170353Z AUTO 25009KT 10SM CLR 26/M12 A2981 RMK AO2 SLP026 T02611117 $

VFR

27.8°C / °C

[Több]
Szél 240º 7kt
Látási viszonyok >10km
Időjárás -
Felhők Clear
Légnyomás 1002
Módosítás -
Nyers KFMN 170253Z 24007KT 10SM CLR 28/M13 A2980 RMK AO2 SLP025 T02781128 56008 $

VFR

32.2°C / °C

[Több]
Szél 210º 7kt
Látási viszonyok >10km
Időjárás -
Felhők Clear
Légnyomás 1002
Módosítás -
Nyers KFMN 170153Z 21007KT 10SM CLR 32/M10 A2980 RMK AO2 SLP022 T03221100 $

VFR

33.9°C / °C

[Több]
Szél 210º 8kt
Látási viszonyok >10km
Időjárás -
Felhők Clear
Légnyomás 1002
Módosítás -
Nyers KFMN 170053Z 21008KT 10SM CLR 34/M11 A2981 RMK AO2 SLP028 T03391111 $

VFR

35°C / °C

[Több]
Szél 260º 12kt Gust 20kt
Látási viszonyok >10km
Időjárás -
Felhők Clear
Légnyomás 1004
Módosítás -
Nyers KFMN 162353Z 26012G20KT 10SM CLR 35/M13 A2983 RMK AO2 SLP042 T03501133 10361 20306 57017 $

VFR

35°C / °C

[Több]
Szél 250º 14kt Gust 21kt
Látási viszonyok >10km
Időjárás -
Felhők Clear
Légnyomás 1004
Módosítás -
Nyers KFMN 162253Z 25014G21KT 10SM CLR 35/M11 A2985 RMK AO2 PK WND 27029/2212 SLP042 T03501106 $

VFR

35°C / °C

[Több]
Szél 190º variable 170º to 240º 10kt Gust 25kt
Látási viszonyok >10km
Időjárás -
Felhők Clear
Légnyomás 1004
Módosítás -
Nyers KFMN 162153Z 19010G25KT 170V240 10SM CLR 35/M11 A2987 RMK AO2 SLP047 T03501106 $

VFR

35.6°C / °C

[Több]
Szél 230º 16kt Gust 25kt
Látási viszonyok >10km
Időjárás -
Felhők Clear
Légnyomás 1005
Módosítás -
Nyers KFMN 162053Z 23016G25KT 10SM CLR 36/M11 A2989 RMK AO2 PK WND 26032/2032 SLP055 T03561111 $

VFR

34.4°C / °C

[Több]
Szél 280º 15kt Gust 21kt
Látási viszonyok >10km
Időjárás -
Felhők Clear
Légnyomás
Módosítás -
Nyers KFMN 161953Z 28015G21KT 10SM CLR 34/M10 RMK AO2 SLPNO T03441100 $

VFR

32.2°C / -9.4°C

[Több]
Szél 4kt
Látási viszonyok >10km
Időjárás -
Felhők Clear
Légnyomás
Módosítás -
Nyers KFMN 161853Z VRB04KT 10SM CLR 32/M09 RMK AO2 SLPNO T03221094 $

VFR

30.6°C / -7.8°C

[Több]
Szél 6kt
Látási viszonyok >10km
Időjárás -
Felhők Clear
Légnyomás
Módosítás -
Nyers KFMN 161753Z VRB06KT 10SM CLR 31/M08 RMK AO2 SLPNO T03061078 10311 20111 $

VFR

28.3°C / -2.8°C

[Több]
Szél variable 0kt
Látási viszonyok >10km
Időjárás -
Felhők Clear
Légnyomás
Módosítás -
Nyers KFMN 161653Z 00000KT 10SM CLR 28/M03 RMK AO2 SLPNO T02831028 $

VFR

25°C / 0.6°C

[Több]
Szél 90º 6kt
Látási viszonyok >10km
Időjárás -
Felhők Clear
Légnyomás
Módosítás -
Nyers KFMN 161553Z 09006KT 10SM CLR 25/01 RMK AO2 SLPNO T02500006 $

VFR

21.1°C / 1.1°C

[Több]
Szél 100º 6kt
Látási viszonyok >10km
Időjárás -
Felhők Clear
Légnyomás
Módosítás -
Nyers KFMN 161453Z 10006KT 10SM CLR 21/01 RMK AO2 SLPNO T02110011 $

VFR

18.3°C / -0.6°C

[Több]
Szél 80º 5kt
Látási viszonyok >10km
Időjárás -
Felhők Clear
Légnyomás
Módosítás -
Nyers KFMN 161353Z 08005KT 10SM CLR 18/M01 RMK AO2 SLPNO T01831006 $

VFR

15.6°C / -1.7°C

[Több]
Szél 80º 8kt
Látási viszonyok >10km
Időjárás -
Felhők Clear
Légnyomás
Módosítás -
Nyers KFMN 161253Z 08008KT 10SM CLR 16/M02 RMK AO2 SLPNO T01561017 $

VFR

11.7°C / -2.8°C

[Több]
Szél 60º 7kt
Látási viszonyok >10km
Időjárás -
Felhők Clear
Légnyomás
Módosítás -
Nyers KFMN 161153Z 06007KT 10SM CLR 12/M03 RMK AO2 SLPNO T01171028 10222 20117 $

VFR

13.3°C / -2.8°C

[Több]
Szél 50º 6kt
Látási viszonyok >10km
Időjárás -
Felhők Clear
Légnyomás
Módosítás -
Nyers KFMN 161053Z AUTO 05006KT 10SM CLR 13/M03 RMK AO2 SLPNO T01331028 $

TAF Farmington (KFMN)-ért

From till


From till Wind 250º 7kt. Visibility 9700m. Sky Clear.
From till Wind 6kt. Visibility 9700m. Sky Clear.
From till Wind 230º 10kt. Gust 18kt. Visibility 9700m. Sky Clear.
From till Wind 240º 18kt. Gust 26kt. Visibility 9700m. Sky Clear.

Nyers: KFMN 170528Z 1706/1806 25007KT P6SM SKC FM170900 VRB06KT P6SM SKC FM171700 23010G18KT P6SM SKC FM172100 24018G26KT P6SM SKC

rainNOW: Eső előrejelzés Farmington és környéke (25km-es körzetben)

0.0 mm
0.0 mm
0.0 mm
0.0 mm
0.0 mm
0.0 mm
0.0 mm
0.0 mm
0.0 mm
0.0 mm
0.0 mm
0.0 mm

Radarkép és ultrarövid távú csapadék-előrejelzés a következő helyhez: Farmington

Szitáló eső
Enyhe
Mérsékelt
Erős
Nagyon heves
Jégeső

A helyzetjelző helye: Farmington. Ez az animáció a csapadékradart mutatja a kiválasztott időintervallumra, valamint egy 1h előrejelzést. A narancssárga keresztek villámlást jeleznek. Az adatokat nowcast.de szolgáltatta (elérhető az USA-ban, Európában és Ausztráliában). A szitáló eső vagy enyhe hóesés láthatatlan lehet a radar számára. A csapadék intenzitása színkóddal van jelölve, a türkizkéktől a pirosig.

Aktuális műholdas képek ezen a helyen: Farmington, USA

A helyszín jelölő a következő helyen van elhelyezve: Farmington. [Több]

A valós idejű műholdas kép ötvözi a nappali látható fényt az éjszakai infravörös sugárzással. Éjjel a kép nem sötét, mivel az infravörös sugárzás képes érzékelni a hőmérséklet-különbségeket. Sajnos az alacsony felhőket és a ködöt nehéz megkülönböztetni a talaj hőmérsékletétől, így az éjszaka folyamán szinte láthatatlanok lehetnek. A Meteosat európai műholdképei valós időben frissülnek minden 5 percben. A GOES-16/GOES-17 (Észak- és Dél-Amerika) és Himawari (Ázsia) képei 10 percenként frissülnek.

A csapadékmennyiséget radar és műholdak alapján becsülik. A műholdakról származó csapadékbecslések éjszaka kevésbé pontosak, mint nappal.

© 2024 meteoblue, NOAA Satellites GOES-16 and EUMETSAT. nowcast által biztosított villámlással kapcsolatos adatok.

Vissza a tetejére
×
Szia,
úgy tűnik, hogy reklámblokkolót használsz.

A reklámozás elengedhetetlen ahhoz, hogy ingyenes honlapunkat egyedülálló részletességgel és pontossággal tartsuk fenn.

Kérjük, vegye fel a www.meteoblue.com fehérlistára a reklámblokkolóján, vagy fontolja meg valamelyik termékünk megvásárlását:

Már rendelkezik előfizetéssel?
Akkor kérjük, jelentkezzen be.